createdAt,value
2022-10-30T00:00:24.208Z,19.80
2022-10-30T00:02:51.111Z,19.70
2022-10-30T00:05:18.734Z,18.93
2022-10-30T00:07:45.862Z,18.87
2022-10-30T00:10:12.614Z,18.50
2022-10-30T00:12:39.441Z,21.90
2022-10-30T00:15:06.685Z,19.97
2022-10-30T00:17:33.718Z,19.77
2022-10-30T00:20:00.600Z,19.77
2022-10-30T00:22:27.343Z,14.27
2022-10-30T00:24:54.104Z,18.47
2022-10-30T00:27:21.132Z,18.97
2022-10-30T00:29:47.876Z,17.20
2022-10-30T00:32:14.752Z,18.87
2022-10-30T00:34:43.369Z,15.60
2022-10-30T00:37:10.303Z,19.27
2022-10-30T00:39:39.889Z,17.90
2022-10-30T00:42:11.216Z,19.50
2022-10-30T00:44:41.172Z,19.80
2022-10-30T00:47:12.478Z,19.67
2022-10-30T00:49:44.499Z,23.40
2022-10-30T00:52:11.335Z,24.63
2022-10-30T00:54:38.133Z,20.13
2022-10-30T00:57:07.798Z,21.20
2022-10-30T00:59:36.008Z,20.47
2022-10-30T01:02:04.613Z,20.03
2022-10-30T01:04:33.383Z,17.53
2022-10-30T01:07:05.797Z,20.73
2022-10-30T01:09:32.749Z,22.77
2022-10-30T01:11:59.813Z,18.90
2022-10-30T01:14:26.745Z,16.87
2022-10-30T01:17:32.423Z,16.00
2022-10-30T01:20:18.016Z,19.80
2022-10-30T01:22:57.304Z,18.27
2022-10-30T01:25:30.664Z,15.67
2022-10-30T01:28:14.053Z,19.10
2022-10-30T01:31:00.989Z,20.63
2022-10-30T01:33:42.891Z,19.47
2022-10-30T01:36:12.555Z,14.60
2022-10-30T01:38:43.754Z,19.80
2022-10-30T01:41:10.738Z,16.63
2022-10-30T01:43:38.185Z,18.97
2022-10-30T01:46:07.362Z,22.17
2022-10-30T01:48:54.461Z,18.73
2022-10-30T01:51:39.805Z,21.53
2022-10-30T01:54:12.877Z,21.90
2022-10-30T01:56:45.366Z,18.13
2022-10-30T01:59:18.553Z,18.30
2022-10-30T02:01:46.008Z,18.80
2022-10-30T02:04:13.657Z,18.33
2022-10-30T02:06:40.742Z,21.57
2022-10-30T02:09:08.922Z,22.87
2022-10-30T02:11:40.192Z,22.47
2022-10-30T02:14:07.846Z,19.13
2022-10-30T02:16:35.471Z,20.60
2022-10-30T02:19:03.514Z,17.73
2022-10-30T02:21:30.700Z,17.90
2022-10-30T02:23:57.499Z,20.60
2022-10-30T02:26:25.486Z,23.40
2022-10-30T02:28:52.236Z,23.27
2022-10-30T02:31:19.542Z,20.33
2022-10-30T02:33:46.832Z,23.80
2022-10-30T02:36:15.721Z,23.20
2022-10-30T02:38:43.374Z,19.30
2022-10-30T02:41:11.038Z,17.83
2022-10-30T02:43:38.272Z,21.97
2022-10-30T02:46:06.088Z,19.00
2022-10-30T02:48:33.729Z,15.57
2022-10-30T02:51:01.437Z,21.40
2022-10-30T02:53:29.749Z,22.77
2022-10-30T02:55:56.895Z,18.90
2022-10-30T02:58:23.709Z,21.43
2022-10-30T03:00:50.516Z,21.57
2022-10-30T03:03:20.062Z,18.20
2022-10-30T03:05:50.013Z,17.27
2022-10-30T03:08:16.808Z,17.17
2022-10-30T03:10:43.811Z,21.13
2022-10-30T03:13:10.575Z,20.67
2022-10-30T03:15:37.445Z,16.60
2022-10-30T03:18:05.838Z,17.00
2022-10-30T03:20:35.787Z,18.73
2022-10-30T03:23:02.559Z,17.27
2022-10-30T03:25:29.435Z,18.47
2022-10-30T03:27:58.508Z,20.33
2022-10-30T03:30:25.823Z,19.30
2022-10-30T03:32:52.803Z,23.13
2022-10-30T03:35:20.568Z,20.57
2022-10-30T03:37:47.370Z,19.57
2022-10-30T03:40:14.234Z,24.83
2022-10-30T03:42:41.553Z,19.93
2022-10-30T03:45:09.181Z,26.47
2022-10-30T03:47:36.002Z,23.07
2022-10-30T03:50:03.223Z,25.10
2022-10-30T03:52:30.172Z,24.60
2022-10-30T03:54:57.619Z,22.67
2022-10-30T03:57:24.473Z,21.83
2022-10-30T04:00:07.301Z,22.27
2022-10-30T04:02:54.950Z,23.43
2022-10-30T04:05:24.557Z,23.23
2022-10-30T04:08:00.385Z,22.13
2022-10-30T04:10:29.685Z,20.40
2022-10-30T04:13:02.848Z,22.60
2022-10-30T04:15:30.275Z,21.70
2022-10-30T04:17:57.713Z,25.57
2022-10-30T04:20:25.861Z,24.73
2022-10-30T04:22:56.389Z,18.80
2022-10-30T04:25:23.823Z,26.50
2022-10-30T04:27:53.182Z,24.00
2022-10-30T04:30:21.534Z,18.53
2022-10-30T04:32:49.000Z,19.17
2022-10-30T04:35:17.233Z,18.97
2022-10-30T04:37:52.222Z,20.27
2022-10-30T04:40:19.059Z,24.37
2022-10-30T04:42:53.157Z,24.37
2022-10-30T04:45:20.348Z,25.03
2022-10-30T04:47:48.381Z,19.17
2022-10-30T04:50:16.640Z,20.97
2022-10-30T04:52:43.409Z,19.50
2022-10-30T04:55:10.872Z,19.63
2022-10-30T04:57:38.258Z,18.80
2022-10-30T05:00:06.926Z,20.80
2022-10-30T05:02:37.270Z,20.17
2022-10-30T05:05:04.588Z,20.73
2022-10-30T05:07:31.705Z,21.30
2022-10-30T05:09:58.623Z,26.40
2022-10-30T05:12:25.667Z,26.13
2022-10-30T05:14:54.390Z,21.50
2022-10-30T05:17:21.811Z,22.57
2022-10-30T05:19:50.582Z,21.77
2022-10-30T05:22:17.339Z,19.27
2022-10-30T05:24:44.220Z,23.10
2022-10-30T05:27:10.980Z,21.10
2022-10-30T05:29:37.795Z,22.37
2022-10-30T05:32:04.812Z,19.03
2022-10-30T05:34:43.337Z,22.30
2022-10-30T05:37:11.377Z,22.63
2022-10-30T05:39:38.207Z,25.17
2022-10-30T05:42:13.942Z,21.93
2022-10-30T05:47:34.699Z,24.40
2022-10-30T05:50:02.064Z,23.77
2022-10-30T05:52:29.402Z,20.40
2022-10-30T05:54:57.808Z,22.13
2022-10-30T05:57:35.978Z,25.70
2022-10-30T06:00:02.903Z,23.53
2022-10-30T06:02:31.201Z,25.53
2022-10-30T06:04:58.119Z,22.40
2022-10-30T06:07:25.086Z,18.77
2022-10-30T06:09:52.344Z,20.70
2022-10-30T06:12:34.333Z,20.47
2022-10-30T06:15:12.941Z,22.67
2022-10-30T06:17:39.795Z,20.60
2022-10-30T06:20:22.609Z,21.70
2022-10-30T06:22:55.250Z,27.50
2022-10-30T06:25:25.150Z,21.57
2022-10-30T06:28:10.830Z,24.17
2022-10-30T06:30:38.076Z,26.03
2022-10-30T06:33:06.740Z,23.73
2022-10-30T06:35:35.491Z,20.67
2022-10-30T06:38:02.396Z,23.03
2022-10-30T06:40:31.384Z,20.83
2022-10-30T06:43:16.793Z,22.00
2022-10-30T06:45:50.105Z,21.27
2022-10-30T06:48:19.019Z,22.83
2022-10-30T06:50:56.299Z,22.50
2022-10-30T06:53:24.297Z,21.43
2022-10-30T06:55:58.985Z,22.67
2022-10-30T06:59:01.474Z,22.37
2022-10-30T07:01:37.521Z,21.10
2022-10-30T07:04:36.424Z,19.90
2022-10-30T07:07:04.173Z,22.07
2022-10-30T07:09:31.036Z,22.57
2022-10-30T07:12:04.111Z,21.87
2022-10-30T07:14:56.296Z,22.80
2022-10-30T07:17:34.805Z,21.97
2022-10-30T07:20:08.434Z,22.47
2022-10-30T07:22:38.367Z,24.03
2022-10-30T07:25:05.410Z,21.93
2022-10-30T07:27:52.557Z,22.37
2022-10-30T07:30:39.821Z,24.43
2022-10-30T07:33:27.441Z,23.92
2022-10-30T07:36:15.211Z,20.87
2022-10-30T07:39:05.656Z,19.77
2022-10-30T07:41:40.383Z,19.47
2022-10-30T07:44:26.016Z,20.97
2022-10-30T07:47:10.175Z,22.53
2022-10-30T07:49:55.811Z,18.73
2022-10-30T07:52:23.054Z,21.80
2022-10-30T07:54:51.682Z,23.67
2022-10-30T07:57:40.222Z,22.10
2022-10-30T08:00:22.401Z,20.83
2022-10-30T08:02:59.061Z,16.27
2022-10-30T08:05:43.612Z,18.37
2022-10-30T08:08:19.867Z,19.13
2022-10-30T08:10:52.810Z,21.50
2022-10-30T08:13:19.760Z,18.63
2022-10-30T08:15:46.510Z,20.30
2022-10-30T08:18:13.745Z,19.60
2022-10-30T08:20:43.021Z,17.90
2022-10-30T08:23:10.747Z,18.03
2022-10-30T08:25:37.626Z,18.73
2022-10-30T08:28:06.094Z,20.23
2022-10-30T08:30:37.780Z,17.50
2022-10-30T08:33:07.620Z,17.37
2022-10-30T08:36:07.626Z,17.13
2022-10-30T08:38:34.566Z,17.03
2022-10-30T08:41:21.705Z,18.20
2022-10-30T08:43:51.598Z,17.63
2022-10-30T08:46:18.581Z,21.43
2022-10-30T08:48:46.071Z,14.60
2022-10-30T08:51:13.078Z,16.90
2022-10-30T08:53:45.188Z,18.97
2022-10-30T08:56:14.773Z,16.20
2022-10-30T08:58:57.827Z,24.60
2022-10-30T09:01:24.900Z,17.20
2022-10-30T09:04:11.963Z,18.57
2022-10-30T09:06:44.719Z,12.60
2022-10-30T09:09:37.805Z,20.73
2022-10-30T09:12:05.777Z,14.20
2022-10-30T09:14:39.524Z,16.33
2022-10-30T09:17:08.699Z,19.47
2022-10-30T09:19:36.900Z,20.00
2022-10-30T09:22:04.749Z,18.03
2022-10-30T09:24:33.380Z,16.50
2022-10-30T09:27:02.972Z,20.50
2022-10-30T09:29:36.176Z,16.00
2022-10-30T09:32:10.212Z,16.13
2022-10-30T09:35:09.516Z,11.10
2022-10-30T09:37:41.364Z,14.07
2022-10-30T09:40:23.982Z,16.90
2022-10-30T09:42:52.282Z,13.90
2022-10-30T09:45:37.571Z,13.00
2022-10-30T09:48:26.715Z,15.57
2022-10-30T09:51:23.947Z,14.63
2022-10-30T09:53:51.029Z,14.90
2022-10-30T09:56:31.986Z,13.80
2022-10-30T09:59:15.856Z,13.57
2022-10-30T10:02:09.745Z,11.97
2022-10-30T10:04:41.898Z,19.30
2022-10-30T10:07:23.008Z,13.67
2022-10-30T10:10:03.796Z,13.63
2022-10-30T10:12:51.221Z,11.30
2022-10-30T10:15:29.992Z,12.67
2022-10-30T10:17:58.595Z,14.60
2022-10-30T10:20:41.580Z,12.10
2022-10-30T10:23:17.511Z,17.77
2022-10-30T10:25:50.984Z,10.40
2022-10-30T10:28:35.763Z,22.83
2022-10-30T10:31:20.377Z,15.83
2022-10-30T10:33:57.883Z,12.67
2022-10-30T10:36:45.126Z,13.33
2022-10-30T10:39:12.039Z,11.77
2022-10-30T10:41:38.767Z,11.67
2022-10-30T10:44:05.618Z,12.60
2022-10-30T10:46:41.781Z,10.87
2022-10-30T10:49:08.599Z,9.90
2022-10-30T10:51:41.300Z,17.87
2022-10-30T10:54:14.401Z,13.20
2022-10-30T10:56:42.636Z,15.93
2022-10-30T10:59:23.503Z,13.90
2022-10-30T11:01:55.981Z,15.93
2022-10-30T11:04:36.435Z,11.23
2022-10-30T11:07:11.985Z,13.13
2022-10-30T11:09:40.134Z,11.40
2022-10-30T11:12:07.065Z,14.20
2022-10-30T11:14:33.823Z,14.73
2022-10-30T11:17:05.707Z,16.77
2022-10-30T11:19:32.768Z,12.97
2022-10-30T11:22:00.418Z,13.73
2022-10-30T11:24:36.628Z,18.10
2022-10-30T11:27:25.817Z,15.50
2022-10-30T11:29:54.018Z,12.60
2022-10-30T11:32:23.065Z,11.83
2022-10-30T11:35:11.356Z,13.13
2022-10-30T11:37:39.928Z,10.83
2022-10-30T11:40:12.869Z,16.53
2022-10-30T11:42:44.098Z,17.77
2022-10-30T11:45:15.862Z,13.70
2022-10-30T11:47:43.295Z,10.30
2022-10-30T11:50:23.825Z,17.30
2022-10-30T11:52:55.795Z,11.47
2022-10-30T11:55:22.646Z,14.47
2022-10-30T11:57:51.403Z,13.60
2022-10-30T12:00:26.631Z,14.70
2022-10-30T12:02:57.937Z,17.93
2022-10-30T12:05:28.197Z,16.23
2022-10-30T12:08:11.108Z,14.73
2022-10-30T12:10:53.300Z,12.70
2022-10-30T12:13:21.904Z,21.03
2022-10-30T12:15:50.135Z,14.10
2022-10-30T12:20:57.077Z,14.00
2022-10-30T12:23:26.029Z,12.47
2022-10-30T12:25:54.423Z,12.30
2022-10-30T12:28:22.472Z,13.30
2022-10-30T12:30:52.336Z,20.80
2022-10-30T12:33:24.669Z,13.63
2022-10-30T12:35:56.049Z,18.10
2022-10-30T12:38:22.895Z,13.50
2022-10-30T12:41:09.942Z,11.83
2022-10-30T12:43:36.814Z,11.97
2022-10-30T12:46:36.156Z,14.50
2022-10-30T12:49:23.309Z,13.87
2022-10-30T12:51:52.996Z,19.23
2022-10-30T12:54:37.946Z,14.77
2022-10-30T12:57:07.524Z,11.50
2022-10-30T13:00:03.989Z,16.27
2022-10-30T13:02:30.909Z,12.50
2022-10-30T13:05:06.347Z,17.93
2022-10-30T13:07:38.917Z,16.57
2022-10-30T13:10:13.090Z,11.63
2022-10-30T13:12:42.053Z,14.50
2022-10-30T13:15:27.576Z,16.33
2022-10-30T13:17:56.370Z,14.83
2022-10-30T13:20:23.558Z,13.97
2022-10-30T13:23:10.631Z,22.97
2022-10-30T13:25:52.831Z,15.80
2022-10-30T13:28:25.884Z,12.37
2022-10-30T13:31:02.193Z,17.77
2022-10-30T13:33:49.370Z,17.20
2022-10-30T13:36:27.422Z,15.60
2022-10-30T13:38:54.262Z,21.60
2022-10-30T13:41:39.820Z,19.10
2022-10-30T13:44:09.750Z,17.33
2022-10-30T13:46:39.432Z,10.87
2022-10-30T13:49:24.693Z,12.07
2022-10-30T13:51:56.163Z,13.70
2022-10-30T13:54:28.354Z,18.20
2022-10-30T13:56:55.885Z,17.77
2022-10-30T13:59:22.608Z,18.67
2022-10-30T14:01:56.382Z,14.97
2022-10-30T14:04:46.258Z,13.67
2022-10-30T14:07:19.106Z,17.90
2022-10-30T14:09:54.555Z,20.60
2022-10-30T14:12:39.980Z,13.93
2022-10-30T14:15:07.101Z,18.67
2022-10-30T14:17:33.882Z,17.70
2022-10-30T14:20:13.360Z,12.57
2022-10-30T14:22:41.309Z,14.97
2022-10-30T14:25:15.206Z,18.43
2022-10-30T14:27:42.144Z,17.67
2022-10-30T14:30:20.078Z,17.10
2022-10-30T14:32:53.397Z,15.87
2022-10-30T14:35:39.231Z,20.10
2022-10-30T14:38:09.061Z,19.93
2022-10-30T14:40:47.664Z,16.50
2022-10-30T14:43:20.227Z,15.50
2022-10-30T14:46:01.243Z,21.00
2022-10-30T14:48:47.128Z,21.77
2022-10-30T14:51:34.206Z,17.40
2022-10-30T14:54:17.965Z,22.40
2022-10-30T14:56:48.643Z,21.40
2022-10-30T14:59:15.490Z,20.17
2022-10-30T15:01:42.323Z,15.23
2022-10-30T15:04:19.733Z,17.73
2022-10-30T15:07:05.345Z,19.07
2022-10-30T15:09:32.189Z,21.80
2022-10-30T15:12:17.823Z,21.47
2022-10-30T15:14:53.891Z,17.50
2022-10-30T15:17:24.361Z,15.50
2022-10-30T15:19:51.185Z,15.87
2022-10-30T15:22:19.422Z,19.07
2022-10-30T15:24:46.625Z,16.40
2022-10-30T15:27:17.640Z,16.53
2022-10-30T15:29:49.072Z,17.47
2022-10-30T15:32:17.473Z,20.50
2022-10-30T15:35:13.297Z,13.20
2022-10-30T15:37:40.206Z,15.60
2022-10-30T15:40:15.776Z,18.20
2022-10-30T15:42:42.922Z,21.53
2022-10-30T15:45:20.129Z,17.27
2022-10-30T15:47:48.546Z,17.17
2022-10-30T15:50:15.921Z,18.67
2022-10-30T15:52:43.174Z,20.40
2022-10-30T15:55:13.328Z,20.97
2022-10-30T16:00:33.634Z,25.27
2022-10-30T16:03:00.725Z,23.27
2022-10-30T16:05:28.028Z,16.87
2022-10-30T16:07:59.393Z,17.00
2022-10-30T16:10:27.803Z,15.33
2022-10-30T16:12:57.376Z,17.53
2022-10-30T16:15:31.596Z,18.30
2022-10-30T16:18:04.775Z,25.63
2022-10-30T16:20:31.883Z,18.13
2022-10-30T16:22:59.767Z,21.20
2022-10-30T16:25:26.640Z,19.90
2022-10-30T16:27:53.437Z,23.67
2022-10-30T16:30:20.290Z,19.77
2022-10-30T16:32:52.661Z,23.87
2022-10-30T16:35:21.466Z,21.67
2022-10-30T16:37:48.832Z,20.33
2022-10-30T16:40:17.502Z,20.57
2022-10-30T16:42:50.539Z,20.43
2022-10-30T16:45:37.292Z,20.77
2022-10-30T16:48:15.240Z,21.30
2022-10-30T16:50:42.157Z,21.33
2022-10-30T16:53:15.702Z,25.47
2022-10-30T16:55:42.535Z,25.10
2022-10-30T16:58:11.818Z,27.93
2022-10-30T17:00:40.418Z,22.43
2022-10-30T17:03:09.269Z,25.97
2022-10-30T17:05:37.218Z,26.03
2022-10-30T17:08:05.649Z,25.50
2022-10-30T17:10:34.480Z,22.83
2022-10-30T17:13:19.785Z,23.50
2022-10-30T17:15:47.198Z,26.27
2022-10-30T17:18:16.733Z,23.70
2022-10-30T17:20:43.926Z,32.73
2022-10-30T17:23:15.625Z,37.20
2022-10-30T17:25:42.564Z,31.70
2022-10-30T17:28:28.866Z,28.67
2022-10-30T17:30:56.145Z,33.20
2022-10-30T17:33:23.255Z,29.33
2022-10-30T17:35:50.724Z,33.23
2022-10-30T17:38:17.744Z,25.70
2022-10-30T17:40:44.715Z,24.00
2022-10-30T17:43:14.822Z,32.17
2022-10-30T17:45:42.231Z,25.73
2022-10-30T17:48:15.996Z,33.20
2022-10-30T17:50:43.165Z,30.13
2022-10-30T17:53:16.909Z,33.30
2022-10-30T17:55:44.629Z,34.70
2022-10-30T17:58:11.533Z,36.37
2022-10-30T18:00:38.556Z,30.07
2022-10-30T18:03:05.398Z,106.17
2022-10-30T18:05:33.898Z,60.10
2022-10-30T18:08:00.851Z,33.23
2022-10-30T18:10:27.678Z,21.47
2022-10-30T18:12:54.645Z,24.60
2022-10-30T18:15:27.281Z,23.60
2022-10-30T18:17:54.543Z,24.53
2022-10-30T18:20:21.688Z,29.07
2022-10-30T18:22:48.756Z,37.80
2022-10-30T18:25:22.353Z,28.47
2022-10-30T18:27:49.275Z,34.20
2022-10-30T18:30:16.192Z,37.17
2022-10-30T18:32:43.172Z,29.97
2022-10-30T18:35:15.909Z,34.10
2022-10-30T18:37:42.747Z,32.43
2022-10-30T18:40:09.940Z,27.77
2022-10-30T18:42:37.026Z,30.07
2022-10-30T18:45:11.344Z,29.47
2022-10-30T18:47:38.299Z,37.80
2022-10-30T18:50:05.245Z,73.07
2022-10-30T18:52:32.102Z,30.33
2022-10-30T18:54:59.508Z,56.53
2022-10-30T18:57:26.276Z,35.13
2022-10-30T18:59:53.758Z,32.93
2022-10-30T19:02:23.316Z,38.17
2022-10-30T19:04:50.224Z,38.07
2022-10-30T19:07:17.683Z,55.87
2022-10-30T19:09:45.231Z,39.87
2022-10-30T19:12:12.510Z,31.57
2022-10-30T19:14:39.391Z,28.83
2022-10-30T19:17:06.549Z,38.87
2022-10-30T19:19:33.655Z,38.87
2022-10-30T19:22:00.547Z,40.03
2022-10-30T19:24:27.765Z,43.83
2022-10-30T19:26:54.695Z,33.80
2022-10-30T19:29:21.892Z,52.03
2022-10-30T19:31:49.852Z,43.53
2022-10-30T19:34:17.036Z,43.80
2022-10-30T19:36:44.311Z,50.27
2022-10-30T19:39:17.079Z,51.43
2022-10-30T19:41:44.658Z,46.13
2022-10-30T19:44:11.995Z,30.80
2022-10-30T19:46:39.015Z,37.43
2022-10-30T19:49:19.611Z,35.80
2022-10-30T19:51:47.027Z,33.53
2022-10-30T19:54:14.604Z,40.57
2022-10-30T19:56:44.322Z,32.67
2022-10-30T19:59:13.541Z,41.27
2022-10-30T20:01:41.875Z,36.07
2022-10-30T20:04:09.535Z,34.63
2022-10-30T20:06:36.672Z,27.10
2022-10-30T20:09:05.754Z,23.80
2022-10-30T20:11:33.231Z,25.90
2022-10-30T20:14:00.761Z,27.93
2022-10-30T20:16:28.101Z,29.10
2022-10-30T20:18:55.055Z,25.90
2022-10-30T20:21:22.152Z,27.43
2022-10-30T20:23:49.250Z,24.23
2022-10-30T20:26:23.272Z,26.70
2022-10-30T20:28:50.893Z,27.37
2022-10-30T20:31:18.472Z,26.63
2022-10-30T20:33:45.749Z,28.80
2022-10-30T20:36:15.921Z,31.03
2022-10-30T20:38:43.246Z,27.87
2022-10-30T20:41:23.978Z,25.20
2022-10-30T20:43:51.522Z,28.20
2022-10-30T20:46:18.813Z,27.40
2022-10-30T20:48:46.734Z,23.53
2022-10-30T20:51:14.018Z,24.37
2022-10-30T20:53:41.220Z,24.80
2022-10-30T20:56:08.870Z,22.13
2022-10-30T20:58:36.386Z,22.97
2022-10-30T21:01:03.306Z,23.37
2022-10-30T21:03:31.073Z,28.10
2022-10-30T21:05:59.997Z,25.60
2022-10-30T21:08:28.303Z,28.07
2022-10-30T21:10:59.358Z,24.90
2022-10-30T21:13:26.844Z,25.03
2022-10-30T21:15:54.311Z,24.87
2022-10-30T21:18:21.168Z,24.00
2022-10-30T21:20:48.029Z,28.00
2022-10-30T21:23:14.891Z,24.77
2022-10-30T21:25:41.700Z,25.90
2022-10-30T21:28:08.584Z,23.20
2022-10-30T21:30:35.369Z,25.37
2022-10-30T21:33:02.621Z,29.13
2022-10-30T21:35:29.771Z,25.40
2022-10-30T21:37:56.569Z,29.37
2022-10-30T21:40:23.540Z,29.03
2022-10-30T21:42:50.298Z,30.33
2022-10-30T21:45:17.179Z,31.60
2022-10-30T21:47:43.991Z,29.20
2022-10-30T21:50:12.894Z,25.03
2022-10-30T21:52:40.520Z,28.30
2022-10-30T21:55:07.588Z,29.07
2022-10-30T21:57:34.615Z,29.53
2022-10-30T22:00:05.500Z,24.73
2022-10-30T22:02:35.543Z,23.17
2022-10-30T22:05:02.379Z,25.60
2022-10-30T22:07:29.255Z,20.70
2022-10-30T22:09:56.148Z,21.87
2022-10-30T22:12:22.905Z,21.87
2022-10-30T22:14:49.841Z,25.23
2022-10-30T22:17:16.753Z,23.53
2022-10-30T22:19:43.654Z,23.77
2022-10-30T22:22:11.355Z,25.90
2022-10-30T22:24:38.380Z,27.33
2022-10-30T22:27:05.190Z,28.03
2022-10-30T22:29:32.234Z,26.40
2022-10-30T22:31:58.981Z,30.00
2022-10-30T22:34:25.784Z,27.43
2022-10-30T22:36:52.843Z,26.23
2022-10-30T22:39:19.824Z,27.30
2022-10-30T22:41:46.716Z,26.43
2022-10-30T22:44:14.965Z,28.10
2022-10-30T22:46:42.085Z,26.33
2022-10-30T22:49:09.139Z,26.53
2022-10-30T22:51:36.833Z,25.07
2022-10-30T22:54:04.567Z,32.17
2022-10-30T22:56:32.448Z,28.93
2022-10-30T22:59:06.502Z,28.27
2022-10-30T23:01:34.899Z,29.30
2022-10-30T23:04:03.122Z,23.83
2022-10-30T23:06:30.556Z,24.23
2022-10-30T23:08:58.491Z,19.40
2022-10-30T23:11:25.715Z,19.60
2022-10-30T23:13:52.595Z,22.00
2022-10-30T23:16:20.795Z,19.13
2022-10-30T23:18:47.697Z,21.50
2022-10-30T23:21:21.573Z,22.87
2022-10-30T23:23:48.881Z,19.53
2022-10-30T23:26:17.595Z,24.13
2022-10-30T23:28:44.882Z,24.40
2022-10-30T23:31:19.770Z,23.70
2022-10-30T23:33:50.445Z,19.30
2022-10-30T23:36:17.847Z,27.73
2022-10-30T23:38:44.765Z,25.97
2022-10-30T23:41:11.661Z,26.30
2022-10-30T23:43:38.405Z,21.93
2022-10-30T23:46:05.385Z,27.23
2022-10-30T23:48:32.207Z,20.93
2022-10-30T23:50:59.009Z,24.63
2022-10-30T23:53:26.168Z,21.23
2022-10-30T23:55:53.563Z,24.40
2022-10-30T23:58:20.763Z,24.40
